sensor_id;sensor_type;location;lat;lon;timestamp;P1;durP1;ratioP1;P2;durP2;ratioP2
64832;SDS011;51290;45.060;38.948;2024-01-16T00:00:07;10.38;;;3.10;;
64832;SDS011;51290;45.060;38.948;2024-01-16T00:02:34;7.93;;;3.45;;
64832;SDS011;51290;45.060;38.948;2024-01-16T00:05:00;5.03;;;2.63;;
64832;SDS011;51290;45.060;38.948;2024-01-16T00:07:26;4.38;;;2.75;;
64832;SDS011;51290;45.060;38.948;2024-01-16T00:09:52;5.32;;;2.80;;
64832;SDS011;51290;45.060;38.948;2024-01-16T00:12:19;3.20;;;2.45;;
64832;SDS011;51290;45.060;38.948;2024-01-16T00:14:46;12.85;;;3.05;;
64832;SDS011;51290;45.060;38.948;2024-01-16T00:17:12;7.97;;;2.92;;
64832;SDS011;51290;45.060;38.948;2024-01-16T00:19:37;5.13;;;2.70;;
64832;SDS011;51290;45.060;38.948;2024-01-16T00:22:03;4.95;;;2.70;;
64832;SDS011;51290;45.060;38.948;2024-01-16T00:24:30;6.22;;;3.28;;
64832;SDS011;51290;45.060;38.948;2024-01-16T00:26:56;6.88;;;2.85;;
64832;SDS011;51290;45.060;38.948;2024-01-16T00:29:22;10.88;;;3.65;;
64832;SDS011;51290;45.060;38.948;2024-01-16T00:31:49;9.80;;;3.67;;
64832;SDS011;51290;45.060;38.948;2024-01-16T00:34:14;10.10;;;3.22;;
64832;SDS011;51290;45.060;38.948;2024-01-16T00:36:41;9.48;;;3.60;;
64832;SDS011;51290;45.060;38.948;2024-01-16T00:39:07;7.35;;;3.78;;
64832;SDS011;51290;45.060;38.948;2024-01-16T00:41:34;6.80;;;3.03;;
64832;SDS011;51290;45.060;38.948;2024-01-16T00:44:00;13.85;;;4.57;;
64832;SDS011;51290;45.060;38.948;2024-01-16T00:46:26;9.77;;;3.85;;
64832;SDS011;51290;45.060;38.948;2024-01-16T00:48:52;6.57;;;4.00;;
64832;SDS011;51290;45.060;38.948;2024-01-16T00:51:18;6.15;;;3.40;;
64832;SDS011;51290;45.060;38.948;2024-01-16T00:53:44;9.60;;;4.10;;
64832;SDS011;51290;45.060;38.948;2024-01-16T00:56:10;10.45;;;4.53;;
64832;SDS011;51290;45.060;38.948;2024-01-16T00:58:37;8.93;;;3.78;;
64832;SDS011;51290;45.060;38.948;2024-01-16T01:01:04;7.93;;;3.58;;
64832;SDS011;51290;45.060;38.948;2024-01-16T01:03:30;6.03;;;2.88;;
64832;SDS011;51290;45.060;38.948;2024-01-16T01:05:56;7.97;;;3.50;;
64832;SDS011;51290;45.060;38.948;2024-01-16T01:08:23;6.18;;;3.30;;
64832;SDS011;51290;45.060;38.948;2024-01-16T01:10:49;7.05;;;3.45;;
64832;SDS011;51290;45.060;38.948;2024-01-16T01:13:15;16.58;;;3.60;;
64832;SDS011;51290;45.060;38.948;2024-01-16T01:15:41;8.05;;;3.55;;
64832;SDS011;51290;45.060;38.948;2024-01-16T01:18:07;8.45;;;3.45;;
64832;SDS011;51290;45.060;38.948;2024-01-16T01:20:33;7.93;;;3.58;;
64832;SDS011;51290;45.060;38.948;2024-01-16T01:22:59;5.18;;;3.13;;
64832;SDS011;51290;45.060;38.948;2024-01-16T01:25:25;7.80;;;3.42;;
64832;SDS011;51290;45.060;38.948;2024-01-16T01:27:51;15.23;;;4.13;;
64832;SDS011;51290;45.060;38.948;2024-01-16T01:30:17;6.43;;;3.10;;
64832;SDS011;51290;45.060;38.948;2024-01-16T01:32:43;4.68;;;3.17;;
64832;SDS011;51290;45.060;38.948;2024-01-16T01:35:09;7.90;;;3.60;;
64832;SDS011;51290;45.060;38.948;2024-01-16T01:37:37;6.35;;;3.53;;
64832;SDS011;51290;45.060;38.948;2024-01-16T01:40:03;5.18;;;3.25;;
64832;SDS011;51290;45.060;38.948;2024-01-16T01:42:30;6.90;;;3.67;;
64832;SDS011;51290;45.060;38.948;2024-01-16T01:44:56;6.75;;;3.50;;
64832;SDS011;51290;45.060;38.948;2024-01-16T01:47:22;4.97;;;3.30;;
64832;SDS011;51290;45.060;38.948;2024-01-16T01:49:48;6.13;;;3.80;;
64832;SDS011;51290;45.060;38.948;2024-01-16T01:52:14;5.15;;;3.40;;
64832;SDS011;51290;45.060;38.948;2024-01-16T01:54:41;10.57;;;3.63;;
64832;SDS011;51290;45.060;38.948;2024-01-16T01:57:07;7.95;;;3.78;;
64832;SDS011;51290;45.060;38.948;2024-01-16T01:59:34;7.05;;;4.22;;
64832;SDS011;51290;45.060;38.948;2024-01-16T02:02:01;7.65;;;3.75;;
64832;SDS011;51290;45.060;38.948;2024-01-16T02:04:28;6.90;;;3.85;;
64832;SDS011;51290;45.060;38.948;2024-01-16T02:06:56;11.20;;;4.05;;
64832;SDS011;51290;45.060;38.948;2024-01-16T02:09:23;6.13;;;3.45;;
64832;SDS011;51290;45.060;38.948;2024-01-16T02:11:50;6.10;;;3.45;;
64832;SDS011;51290;45.060;38.948;2024-01-16T02:14:19;7.50;;;3.60;;
64832;SDS011;51290;45.060;38.948;2024-01-16T02:16:45;7.07;;;3.95;;
64832;SDS011;51290;45.060;38.948;2024-01-16T02:19:11;7.75;;;3.90;;
64832;SDS011;51290;45.060;38.948;2024-01-16T02:21:38;9.05;;;5.05;;
64832;SDS011;51290;45.060;38.948;2024-01-16T02:24:07;15.07;;;4.57;;
64832;SDS011;51290;45.060;38.948;2024-01-16T02:26:35;7.93;;;4.15;;
64832;SDS011;51290;45.060;38.948;2024-01-16T02:29:01;11.93;;;7.60;;
64832;SDS011;51290;45.060;38.948;2024-01-16T02:31:29;12.10;;;6.35;;
64832;SDS011;51290;45.060;38.948;2024-01-16T02:33:55;10.95;;;5.93;;
64832;SDS011;51290;45.060;38.948;2024-01-16T02:36:20;8.52;;;5.55;;
64832;SDS011;51290;45.060;38.948;2024-01-16T02:38:46;9.70;;;5.28;;
64832;SDS011;51290;45.060;38.948;2024-01-16T02:41:13;8.75;;;5.38;;
64832;SDS011;51290;45.060;38.948;2024-01-16T02:43:41;11.25;;;4.72;;
64832;SDS011;51290;45.060;38.948;2024-01-16T02:46:07;8.23;;;5.40;;
64832;SDS011;51290;45.060;38.948;2024-01-16T02:48:37;8.40;;;5.20;;
64832;SDS011;51290;45.060;38.948;2024-01-16T02:51:03;16.92;;;6.00;;
64832;SDS011;51290;45.060;38.948;2024-01-16T02:53:30;15.35;;;9.05;;
64832;SDS011;51290;45.060;38.948;2024-01-16T02:55:57;12.60;;;6.85;;
64832;SDS011;51290;45.060;38.948;2024-01-16T02:58:26;10.45;;;6.72;;
64832;SDS011;51290;45.060;38.948;2024-01-16T03:00:52;14.45;;;5.82;;
64832;SDS011;51290;45.060;38.948;2024-01-16T03:03:18;13.25;;;6.25;;
64832;SDS011;51290;45.060;38.948;2024-01-16T03:05:45;7.00;;;4.85;;
64832;SDS011;51290;45.060;38.948;2024-01-16T03:08:12;9.43;;;5.15;;
64832;SDS011;51290;45.060;38.948;2024-01-16T03:10:38;9.90;;;4.50;;
64832;SDS011;51290;45.060;38.948;2024-01-16T03:13:04;7.63;;;5.00;;
64832;SDS011;51290;45.060;38.948;2024-01-16T03:15:30;12.55;;;5.90;;
64832;SDS011;51290;45.060;38.948;2024-01-16T03:17:59;9.88;;;6.60;;
64832;SDS011;51290;45.060;38.948;2024-01-16T03:20:26;13.68;;;7.38;;
64832;SDS011;51290;45.060;38.948;2024-01-16T03:22:53;10.65;;;6.78;;
64832;SDS011;51290;45.060;38.948;2024-01-16T03:25:19;15.93;;;7.00;;
64832;SDS011;51290;45.060;38.948;2024-01-16T03:27:46;10.32;;;6.53;;
64832;SDS011;51290;45.060;38.948;2024-01-16T03:30:12;11.32;;;7.30;;
64832;SDS011;51290;45.060;38.948;2024-01-16T03:32:39;10.75;;;6.50;;
64832;SDS011;51290;45.060;38.948;2024-01-16T03:35:05;9.93;;;5.75;;
64832;SDS011;51290;45.060;38.948;2024-01-16T03:37:32;10.77;;;6.63;;
64832;SDS011;51290;45.060;38.948;2024-01-16T03:39:59;10.57;;;6.60;;
64832;SDS011;51290;45.060;38.948;2024-01-16T03:42:25;7.35;;;4.97;;
64832;SDS011;51290;45.060;38.948;2024-01-16T03:44:51;10.90;;;5.40;;
64832;SDS011;51290;45.060;38.948;2024-01-16T03:47:17;9.55;;;4.85;;
64832;SDS011;51290;45.060;38.948;2024-01-16T03:49:43;9.75;;;5.50;;
64832;SDS011;51290;45.060;38.948;2024-01-16T03:52:09;6.43;;;4.35;;
64832;SDS011;51290;45.060;38.948;2024-01-16T03:54:35;7.75;;;5.03;;
64832;SDS011;51290;45.060;38.948;2024-01-16T03:57:01;7.32;;;4.60;;
64832;SDS011;51290;45.060;38.948;2024-01-16T03:59:27;10.25;;;4.70;;
64832;SDS011;51290;45.060;38.948;2024-01-16T04:01:53;8.05;;;4.72;;
64832;SDS011;51290;45.060;38.948;2024-01-16T04:04:19;10.18;;;5.32;;
64832;SDS011;51290;45.060;38.948;2024-01-16T04:06:48;9.52;;;5.05;;
64832;SDS011;51290;45.060;38.948;2024-01-16T04:09:14;9.55;;;4.80;;
64832;SDS011;51290;45.060;38.948;2024-01-16T04:11:40;11.52;;;4.88;;
64832;SDS011;51290;45.060;38.948;2024-01-16T04:14:06;13.10;;;5.53;;
64832;SDS011;51290;45.060;38.948;2024-01-16T04:16:32;8.02;;;5.00;;
64832;SDS011;51290;45.060;38.948;2024-01-16T04:18:58;7.65;;;5.03;;
64832;SDS011;51290;45.060;38.948;2024-01-16T04:21:24;10.60;;;5.53;;
64832;SDS011;51290;45.060;38.948;2024-01-16T04:23:51;12.02;;;6.28;;
64832;SDS011;51290;45.060;38.948;2024-01-16T04:26:17;10.50;;;5.40;;
64832;SDS011;51290;45.060;38.948;2024-01-16T04:28:43;9.02;;;4.82;;
64832;SDS011;51290;45.060;38.948;2024-01-16T04:31:09;8.40;;;4.93;;
64832;SDS011;51290;45.060;38.948;2024-01-16T04:33:37;14.88;;;5.43;;
64832;SDS011;51290;45.060;38.948;2024-01-16T04:36:04;9.45;;;6.15;;
64832;SDS011;51290;45.060;38.948;2024-01-16T04:38:31;15.10;;;7.32;;
64832;SDS011;51290;45.060;38.948;2024-01-16T04:40:57;13.38;;;8.13;;
64832;SDS011;51290;45.060;38.948;2024-01-16T04:43:26;16.38;;;7.40;;
64832;SDS011;51290;45.060;38.948;2024-01-16T04:45:52;12.43;;;6.63;;
64832;SDS011;51290;45.060;38.948;2024-01-16T04:48:17;15.55;;;7.63;;
64832;SDS011;51290;45.060;38.948;2024-01-16T04:50:43;22.67;;;9.00;;
64832;SDS011;51290;45.060;38.948;2024-01-16T04:53:10;15.40;;;7.55;;
64832;SDS011;51290;45.060;38.948;2024-01-16T04:55:37;10.63;;;6.05;;
64832;SDS011;51290;45.060;38.948;2024-01-16T04:58:03;20.90;;;8.35;;
64832;SDS011;51290;45.060;38.948;2024-01-16T05:00:29;11.20;;;6.68;;
64832;SDS011;51290;45.060;38.948;2024-01-16T05:02:55;13.00;;;6.22;;
64832;SDS011;51290;45.060;38.948;2024-01-16T05:05:21;8.35;;;5.47;;
64832;SDS011;51290;45.060;38.948;2024-01-16T05:07:47;13.88;;;5.93;;
64832;SDS011;51290;45.060;38.948;2024-01-16T05:10:13;11.63;;;6.60;;
64832;SDS011;51290;45.060;38.948;2024-01-16T05:12:39;12.02;;;6.50;;
64832;SDS011;51290;45.060;38.948;2024-01-16T05:15:06;9.40;;;5.70;;
64832;SDS011;51290;45.060;38.948;2024-01-16T05:17:32;12.88;;;6.68;;
64832;SDS011;51290;45.060;38.948;2024-01-16T05:19:58;12.93;;;5.90;;
64832;SDS011;51290;45.060;38.948;2024-01-16T05:22:24;12.02;;;5.07;;
64832;SDS011;51290;45.060;38.948;2024-01-16T05:24:51;11.30;;;6.10;;
64832;SDS011;51290;45.060;38.948;2024-01-16T05:27:17;11.57;;;5.78;;
64832;SDS011;51290;45.060;38.948;2024-01-16T05:29:43;14.60;;;5.95;;
64832;SDS011;51290;45.060;38.948;2024-01-16T05:32:09;12.30;;;6.03;;
64832;SDS011;51290;45.060;38.948;2024-01-16T05:34:35;17.13;;;6.55;;
64832;SDS011;51290;45.060;38.948;2024-01-16T05:37:01;10.80;;;6.35;;
64832;SDS011;51290;45.060;38.948;2024-01-16T05:39:27;11.48;;;6.07;;
64832;SDS011;51290;45.060;38.948;2024-01-16T05:41:54;10.55;;;6.03;;
64832;SDS011;51290;45.060;38.948;2024-01-16T05:44:20;12.35;;;6.25;;
64832;SDS011;51290;45.060;38.948;2024-01-16T05:46:46;16.75;;;7.10;;
64832;SDS011;51290;45.060;38.948;2024-01-16T05:49:12;13.05;;;7.00;;
64832;SDS011;51290;45.060;38.948;2024-01-16T05:51:38;14.10;;;6.95;;
64832;SDS011;51290;45.060;38.948;2024-01-16T05:54:04;12.65;;;7.30;;
64832;SDS011;51290;45.060;38.948;2024-01-16T05:56:31;12.55;;;6.82;;
64832;SDS011;51290;45.060;38.948;2024-01-16T05:58:57;10.05;;;7.15;;
64832;SDS011;51290;45.060;38.948;2024-01-16T06:01:23;15.73;;;8.93;;
64832;SDS011;51290;45.060;38.948;2024-01-16T06:03:49;12.25;;;8.00;;
64832;SDS011;51290;45.060;38.948;2024-01-16T06:06:15;13.68;;;9.48;;
64832;SDS011;51290;45.060;38.948;2024-01-16T06:08:41;15.40;;;9.85;;
64832;SDS011;51290;45.060;38.948;2024-01-16T06:11:07;15.90;;;8.30;;
64832;SDS011;51290;45.060;38.948;2024-01-16T06:13:33;11.93;;;7.45;;
64832;SDS011;51290;45.060;38.948;2024-01-16T06:15:59;11.68;;;7.25;;
64832;SDS011;51290;45.060;38.948;2024-01-16T06:18:25;14.60;;;7.03;;
64832;SDS011;51290;45.060;38.948;2024-01-16T06:20:51;15.65;;;7.07;;
64832;SDS011;51290;45.060;38.948;2024-01-16T06:23:17;12.10;;;6.80;;
64832;SDS011;51290;45.060;38.948;2024-01-16T06:25:43;13.90;;;7.38;;
64832;SDS011;51290;45.060;38.948;2024-01-16T06:28:11;16.00;;;7.90;;
64832;SDS011;51290;45.060;38.948;2024-01-16T06:30:37;27.13;;;9.15;;
64832;SDS011;51290;45.060;38.948;2024-01-16T06:33:03;21.38;;;8.75;;
64832;SDS011;51290;45.060;38.948;2024-01-16T06:35:30;14.93;;;9.15;;
64832;SDS011;51290;45.060;38.948;2024-01-16T06:37:56;21.83;;;8.10;;
64832;SDS011;51290;45.060;38.948;2024-01-16T06:40:22;24.30;;;8.45;;
64832;SDS011;51290;45.060;38.948;2024-01-16T06:42:48;17.42;;;8.18;;
64832;SDS011;51290;45.060;38.948;2024-01-16T06:45:14;50.60;;;10.30;;
64832;SDS011;51290;45.060;38.948;2024-01-16T06:47:41;31.48;;;9.55;;
64832;SDS011;51290;45.060;38.948;2024-01-16T06:50:07;24.15;;;9.00;;
64832;SDS011;51290;45.060;38.948;2024-01-16T06:52:33;28.85;;;10.02;;
64832;SDS011;51290;45.060;38.948;2024-01-16T06:54:59;19.77;;;9.07;;
64832;SDS011;51290;45.060;38.948;2024-01-16T06:57:25;32.35;;;10.63;;
64832;SDS011;51290;45.060;38.948;2024-01-16T06:59:52;12.18;;;9.13;;
64832;SDS011;51290;45.060;38.948;2024-01-16T07:02:19;33.53;;;11.15;;
64832;SDS011;51290;45.060;38.948;2024-01-16T07:04:45;30.02;;;11.30;;
64832;SDS011;51290;45.060;38.948;2024-01-16T07:07:11;29.52;;;11.52;;
64832;SDS011;51290;45.060;38.948;2024-01-16T07:09:37;34.83;;;11.05;;
64832;SDS011;51290;45.060;38.948;2024-01-16T07:12:03;19.50;;;7.10;;
64832;SDS011;51290;45.060;38.948;2024-01-16T07:14:29;28.70;;;9.32;;
64832;SDS011;51290;45.060;38.948;2024-01-16T07:16:56;22.55;;;7.97;;
64832;SDS011;51290;45.060;38.948;2024-01-16T07:19:22;10.90;;;6.07;;
64832;SDS011;51290;45.060;38.948;2024-01-16T07:21:48;20.65;;;5.85;;
64832;SDS011;51290;45.060;38.948;2024-01-16T07:24:14;14.65;;;5.30;;
64832;SDS011;51290;45.060;38.948;2024-01-16T07:26:40;15.13;;;4.97;;
64832;SDS011;51290;45.060;38.948;2024-01-16T07:29:06;8.07;;;4.57;;
64832;SDS011;51290;45.060;38.948;2024-01-16T07:31:32;12.90;;;4.10;;
64832;SDS011;51290;45.060;38.948;2024-01-16T07:33:59;20.90;;;4.53;;
64832;SDS011;51290;45.060;38.948;2024-01-16T07:36:25;8.45;;;3.70;;
64832;SDS011;51290;45.060;38.948;2024-01-16T07:38:51;9.82;;;3.80;;
64832;SDS011;51290;45.060;38.948;2024-01-16T07:41:17;7.22;;;3.92;;
64832;SDS011;51290;45.060;38.948;2024-01-16T07:43:43;12.38;;;4.35;;
64832;SDS011;51290;45.060;38.948;2024-01-16T07:46:09;10.32;;;4.30;;
64832;SDS011;51290;45.060;38.948;2024-01-16T07:48:35;13.20;;;3.40;;
64832;SDS011;51290;45.060;38.948;2024-01-16T07:51:01;12.88;;;7.97;;
64832;SDS011;51290;45.060;38.948;2024-01-16T07:53:27;6.00;;;3.53;;
64832;SDS011;51290;45.060;38.948;2024-01-16T07:55:53;8.90;;;3.47;;
64832;SDS011;51290;45.060;38.948;2024-01-16T07:58:20;29.65;;;3.60;;
64832;SDS011;51290;45.060;38.948;2024-01-16T08:00:46;6.75;;;3.30;;
64832;SDS011;51290;45.060;38.948;2024-01-16T08:03:12;8.32;;;3.55;;
64832;SDS011;51290;45.060;38.948;2024-01-16T08:05:39;10.48;;;4.10;;
64832;SDS011;51290;45.060;38.948;2024-01-16T08:08:09;19.45;;;4.20;;
64832;SDS011;51290;45.060;38.948;2024-01-16T08:10:35;12.05;;;4.10;;
64832;SDS011;51290;45.060;38.948;2024-01-16T08:13:01;10.70;;;3.75;;
64832;SDS011;51290;45.060;38.948;2024-01-16T08:15:27;12.75;;;3.40;;
64832;SDS011;51290;45.060;38.948;2024-01-16T08:17:53;7.35;;;3.30;;
64832;SDS011;51290;45.060;38.948;2024-01-16T08:20:19;6.18;;;3.22;;
64832;SDS011;51290;45.060;38.948;2024-01-16T08:22:46;8.98;;;3.42;;
64832;SDS011;51290;45.060;38.948;2024-01-16T08:25:12;8.80;;;3.40;;
64832;SDS011;51290;45.060;38.948;2024-01-16T08:27:38;6.80;;;3.20;;
64832;SDS011;51290;45.060;38.948;2024-01-16T08:30:05;10.57;;;3.50;;
64832;SDS011;51290;45.060;38.948;2024-01-16T08:32:32;16.27;;;4.03;;
64832;SDS011;51290;45.060;38.948;2024-01-16T08:34:58;6.63;;;3.72;;
64832;SDS011;51290;45.060;38.948;2024-01-16T08:37:25;7.35;;;3.17;;
64832;SDS011;51290;45.060;38.948;2024-01-16T08:39:51;9.05;;;4.30;;
64832;SDS011;51290;45.060;38.948;2024-01-16T08:42:17;10.55;;;3.72;;
64832;SDS011;51290;45.060;38.948;2024-01-16T08:44:43;6.22;;;3.03;;
64832;SDS011;51290;45.060;38.948;2024-01-16T08:47:09;7.72;;;3.40;;
64832;SDS011;51290;45.060;38.948;2024-01-16T08:49:35;13.73;;;4.20;;
64832;SDS011;51290;45.060;38.948;2024-01-16T08:52:03;7.15;;;3.40;;
64832;SDS011;51290;45.060;38.948;2024-01-16T08:54:30;14.73;;;3.42;;
64832;SDS011;51290;45.060;38.948;2024-01-16T08:56:56;10.48;;;3.50;;
64832;SDS011;51290;45.060;38.948;2024-01-16T08:59:23;10.23;;;3.10;;
64832;SDS011;51290;45.060;38.948;2024-01-16T09:01:52;8.90;;;3.78;;
64832;SDS011;51290;45.060;38.948;2024-01-16T09:04:18;7.20;;;3.38;;
64832;SDS011;51290;45.060;38.948;2024-01-16T09:06:44;9.88;;;3.65;;
64832;SDS011;51290;45.060;38.948;2024-01-16T09:09:11;9.20;;;3.17;;
64832;SDS011;51290;45.060;38.948;2024-01-16T09:11:37;6.53;;;3.13;;
64832;SDS011;51290;45.060;38.948;2024-01-16T09:14:03;7.13;;;3.53;;
64832;SDS011;51290;45.060;38.948;2024-01-16T09:16:30;15.75;;;4.18;;
64832;SDS011;51290;45.060;38.948;2024-01-16T09:18:56;8.43;;;2.95;;
64832;SDS011;51290;45.060;38.948;2024-01-16T09:21:22;6.15;;;3.22;;
64832;SDS011;51290;45.060;38.948;2024-01-16T09:23:48;8.65;;;3.60;;
64832;SDS011;51290;45.060;38.948;2024-01-16T09:26:14;15.65;;;4.32;;
64832;SDS011;51290;45.060;38.948;2024-01-16T09:28:40;10.57;;;3.90;;
64832;SDS011;51290;45.060;38.948;2024-01-16T09:31:06;11.82;;;4.10;;
64832;SDS011;51290;45.060;38.948;2024-01-16T09:33:33;9.73;;;3.55;;
64832;SDS011;51290;45.060;38.948;2024-01-16T09:36:00;6.18;;;3.58;;
64832;SDS011;51290;45.060;38.948;2024-01-16T09:38:26;11.00;;;4.18;;
64832;SDS011;51290;45.060;38.948;2024-01-16T09:40:52;13.82;;;4.65;;
64832;SDS011;51290;45.060;38.948;2024-01-16T09:43:22;5.75;;;3.28;;
64832;SDS011;51290;45.060;38.948;2024-01-16T09:45:48;10.13;;;3.40;;
64832;SDS011;51290;45.060;38.948;2024-01-16T09:48:16;18.55;;;3.40;;
64832;SDS011;51290;45.060;38.948;2024-01-16T09:50:43;15.18;;;3.30;;
64832;SDS011;51290;45.060;38.948;2024-01-16T09:53:09;16.77;;;3.83;;
64832;SDS011;51290;45.060;38.948;2024-01-16T09:55:36;13.75;;;3.15;;
64832;SDS011;51290;45.060;38.948;2024-01-16T09:58:02;7.45;;;3.35;;
64832;SDS011;51290;45.060;38.948;2024-01-16T10:00:32;4.35;;;2.92;;
64832;SDS011;51290;45.060;38.948;2024-01-16T10:02:58;9.05;;;3.58;;
64832;SDS011;51290;45.060;38.948;2024-01-16T10:05:25;3.75;;;2.60;;
64832;SDS011;51290;45.060;38.948;2024-01-16T10:07:51;27.15;;;3.65;;
64832;SDS011;51290;45.060;38.948;2024-01-16T10:10:17;6.05;;;2.80;;
64832;SDS011;51290;45.060;38.948;2024-01-16T10:12:46;17.65;;;3.80;;
64832;SDS011;51290;45.060;38.948;2024-01-16T10:15:12;10.05;;;3.65;;
64832;SDS011;51290;45.060;38.948;2024-01-16T10:17:41;11.30;;;3.72;;
64832;SDS011;51290;45.060;38.948;2024-01-16T10:20:08;10.05;;;4.18;;
64832;SDS011;51290;45.060;38.948;2024-01-16T10:22:41;8.32;;;2.72;;
64832;SDS011;51290;45.060;38.948;2024-01-16T10:25:29;5.95;;;2.83;;
64832;SDS011;51290;45.060;38.948;2024-01-16T10:28:05;11.50;;;3.55;;
64832;SDS011;51290;45.060;38.948;2024-01-16T10:30:33;12.63;;;3.40;;
64832;SDS011;51290;45.060;38.948;2024-01-16T10:33:13;5.70;;;2.92;;
64832;SDS011;51290;45.060;38.948;2024-01-16T10:35:42;5.20;;;2.72;;
64832;SDS011;51290;45.060;38.948;2024-01-16T10:38:19;6.85;;;3.30;;
64832;SDS011;51290;45.060;38.948;2024-01-16T10:40:47;8.88;;;3.03;;
64832;SDS011;51290;45.060;38.948;2024-01-16T10:43:14;10.48;;;3.50;;
64832;SDS011;51290;45.060;38.948;2024-01-16T10:45:46;18.52;;;3.60;;
64832;SDS011;51290;45.060;38.948;2024-01-16T10:48:13;34.70;;;3.58;;
64832;SDS011;51290;45.060;38.948;2024-01-16T10:50:41;5.72;;;3.00;;
64832;SDS011;51290;45.060;38.948;2024-01-16T10:53:07;9.73;;;3.20;;
64832;SDS011;51290;45.060;38.948;2024-01-16T10:55:47;41.47;;;4.00;;
64832;SDS011;51290;45.060;38.948;2024-01-16T10:58:22;5.28;;;2.45;;
64832;SDS011;51290;45.060;38.948;2024-01-16T11:00:52;9.40;;;2.50;;
64832;SDS011;51290;45.060;38.948;2024-01-16T11:03:19;7.38;;;2.80;;
64832;SDS011;51290;45.060;38.948;2024-01-16T11:05:51;8.40;;;2.65;;
64832;SDS011;51290;45.060;38.948;2024-01-16T11:08:19;2.45;;;1.98;;
64832;SDS011;51290;45.060;38.948;2024-01-16T11:10:46;8.70;;;3.50;;
64832;SDS011;51290;45.060;38.948;2024-01-16T11:13:15;7.55;;;2.80;;
64832;SDS011;51290;45.060;38.948;2024-01-16T11:15:44;14.70;;;3.00;;
64832;SDS011;51290;45.060;38.948;2024-01-16T11:18:13;16.90;;;3.72;;
64832;SDS011;51290;45.060;38.948;2024-01-16T11:20:41;6.85;;;3.45;;
64832;SDS011;51290;45.060;38.948;2024-01-16T11:23:10;16.98;;;4.13;;
64832;SDS011;51290;45.060;38.948;2024-01-16T11:25:38;5.32;;;2.80;;
64832;SDS011;51290;45.060;38.948;2024-01-16T11:28:13;9.23;;;3.13;;
64832;SDS011;51290;45.060;38.948;2024-01-16T11:30:42;14.07;;;3.35;;
64832;SDS011;51290;45.060;38.948;2024-01-16T11:35:57;11.55;;;3.28;;
64832;SDS011;51290;45.060;38.948;2024-01-16T11:38:24;9.63;;;4.10;;
64832;SDS011;51290;45.060;38.948;2024-01-16T11:40:52;8.15;;;3.75;;
64832;SDS011;51290;45.060;38.948;2024-01-16T11:43:34;6.95;;;3.33;;
64832;SDS011;51290;45.060;38.948;2024-01-16T11:46:05;5.28;;;3.00;;
64832;SDS011;51290;45.060;38.948;2024-01-16T11:48:35;4.55;;;2.75;;
64832;SDS011;51290;45.060;38.948;2024-01-16T11:51:22;5.75;;;3.45;;
64832;SDS011;51290;45.060;38.948;2024-01-16T11:53:49;6.75;;;2.97;;
64832;SDS011;51290;45.060;38.948;2024-01-16T12:01:30;9.98;;;3.45;;
64832;SDS011;51290;45.060;38.948;2024-01-16T12:04:06;7.05;;;4.20;;
64832;SDS011;51290;45.060;38.948;2024-01-16T12:06:35;7.78;;;3.67;;
64832;SDS011;51290;45.060;38.948;2024-01-16T12:09:12;11.55;;;3.80;;
64832;SDS011;51290;45.060;38.948;2024-01-16T12:11:40;6.32;;;3.00;;
64832;SDS011;51290;45.060;38.948;2024-01-16T12:14:09;6.38;;;3.38;;
64832;SDS011;51290;45.060;38.948;2024-01-16T12:16:35;5.18;;;3.28;;
64832;SDS011;51290;45.060;38.948;2024-01-16T12:19:05;7.45;;;3.65;;
64832;SDS011;51290;45.060;38.948;2024-01-16T12:21:34;10.35;;;4.65;;
64832;SDS011;51290;45.060;38.948;2024-01-16T12:24:04;6.97;;;3.10;;
64832;SDS011;51290;45.060;38.948;2024-01-16T12:26:30;5.88;;;3.33;;
64832;SDS011;51290;45.060;38.948;2024-01-16T12:28:59;5.18;;;3.33;;
64832;SDS011;51290;45.060;38.948;2024-01-16T12:31:26;8.48;;;3.50;;
64832;SDS011;51290;45.060;38.948;2024-01-16T12:34:12;11.75;;;5.00;;
64832;SDS011;51290;45.060;38.948;2024-01-16T12:36:38;12.88;;;4.63;;
64832;SDS011;51290;45.060;38.948;2024-01-16T12:39:05;8.05;;;3.63;;
64832;SDS011;51290;45.060;38.948;2024-01-16T12:41:35;13.98;;;4.20;;
64832;SDS011;51290;45.060;38.948;2024-01-16T12:44:05;8.68;;;3.65;;
64832;SDS011;51290;45.060;38.948;2024-01-16T12:46:31;6.93;;;4.28;;
64832;SDS011;51290;45.060;38.948;2024-01-16T12:49:03;10.85;;;4.32;;
64832;SDS011;51290;45.060;38.948;2024-01-16T12:51:32;6.75;;;3.70;;
64832;SDS011;51290;45.060;38.948;2024-01-16T12:56:58;9.18;;;4.72;;
64832;SDS011;51290;45.060;38.948;2024-01-16T12:59:27;7.90;;;3.35;;
64832;SDS011;51290;45.060;38.948;2024-01-16T13:01:56;8.88;;;4.78;;
64832;SDS011;51290;45.060;38.948;2024-01-16T13:04:23;8.32;;;4.60;;
64832;SDS011;51290;45.060;38.948;2024-01-16T13:06:49;8.10;;;3.22;;
64832;SDS011;51290;45.060;38.948;2024-01-16T13:09:15;7.93;;;4.15;;
64832;SDS011;51290;45.060;38.948;2024-01-16T13:14:20;5.32;;;3.47;;
64832;SDS011;51290;45.060;38.948;2024-01-16T13:16:48;7.75;;;4.30;;
64832;SDS011;51290;45.060;38.948;2024-01-16T13:19:18;6.70;;;3.60;;
64832;SDS011;51290;45.060;38.948;2024-01-16T13:21:44;7.65;;;4.20;;
64832;SDS011;51290;45.060;38.948;2024-01-16T13:24:11;7.65;;;4.65;;
64832;SDS011;51290;45.060;38.948;2024-01-16T13:26:39;7.78;;;4.65;;
64832;SDS011;51290;45.060;38.948;2024-01-16T13:29:05;8.30;;;4.75;;
64832;SDS011;51290;45.060;38.948;2024-01-16T13:31:31;8.82;;;4.38;;
64832;SDS011;51290;45.060;38.948;2024-01-16T13:33:58;5.40;;;3.78;;
64832;SDS011;51290;45.060;38.948;2024-01-16T13:36:25;7.35;;;4.53;;
64832;SDS011;51290;45.060;38.948;2024-01-16T13:38:51;6.57;;;3.97;;
64832;SDS011;51290;45.060;38.948;2024-01-16T13:41:17;6.82;;;4.25;;
64832;SDS011;51290;45.060;38.948;2024-01-16T13:43:43;8.98;;;4.55;;
64832;SDS011;51290;45.060;38.948;2024-01-16T13:46:09;30.55;;;4.85;;
64832;SDS011;51290;45.060;38.948;2024-01-16T13:48:36;7.25;;;4.07;;
64832;SDS011;51290;45.060;38.948;2024-01-16T13:51:02;8.63;;;4.53;;
64832;SDS011;51290;45.060;38.948;2024-01-16T13:53:29;9.32;;;4.88;;
64832;SDS011;51290;45.060;38.948;2024-01-16T13:55:56;11.90;;;4.85;;
64832;SDS011;51290;45.060;38.948;2024-01-16T13:58:23;8.10;;;4.10;;
64832;SDS011;51290;45.060;38.948;2024-01-16T14:00:49;8.23;;;4.45;;
64832;SDS011;51290;45.060;38.948;2024-01-16T14:03:16;5.43;;;3.78;;
64832;SDS011;51290;45.060;38.948;2024-01-16T14:05:42;7.68;;;4.25;;
64832;SDS011;51290;45.060;38.948;2024-01-16T14:08:08;7.10;;;3.45;;
64832;SDS011;51290;45.060;38.948;2024-01-16T14:10:38;8.32;;;4.07;;
64832;SDS011;51290;45.060;38.948;2024-01-16T14:13:04;4.65;;;3.42;;
64832;SDS011;51290;45.060;38.948;2024-01-16T14:15:30;10.80;;;4.32;;
64832;SDS011;51290;45.060;38.948;2024-01-16T14:17:57;11.52;;;4.13;;
64832;SDS011;51290;45.060;38.948;2024-01-16T14:20:24;16.58;;;4.60;;
64832;SDS011;51290;45.060;38.948;2024-01-16T14:22:55;6.55;;;3.67;;
64832;SDS011;51290;45.060;38.948;2024-01-16T14:25:23;9.15;;;3.85;;
64832;SDS011;51290;45.060;38.948;2024-01-16T14:27:56;7.68;;;3.53;;
64832;SDS011;51290;45.060;38.948;2024-01-16T14:30:23;8.57;;;3.70;;
64832;SDS011;51290;45.060;38.948;2024-01-16T14:32:50;5.65;;;3.90;;
64832;SDS011;51290;45.060;38.948;2024-01-16T14:35:18;16.48;;;4.00;;
64832;SDS011;51290;45.060;38.948;2024-01-16T14:37:45;10.60;;;3.72;;
64832;SDS011;51290;45.060;38.948;2024-01-16T14:40:11;9.57;;;3.92;;